Time;durP1;ratioP1;P1;durP2;ratioP2;P2;SDS_P1;SDS_P2;PMS_P1;PMS_P2;Temp;Humidity;BMP_temperature;BMP_pressure;BME280_temperature;BME280_humidity;BME280_pressure;Samples;Min_cycle;Max_cycle;Signal;HPM_P1;HPM_P2
2023/09/12 00:01:15;;;;;;;3.87;2.23;;;;;;;19.82;57.75;98507.31;5013393;28;41210;-80
2023/09/12 00:03:43;;;;;;;7.27;2.80;;;;;;;19.76;57.46;98504.44;5018826;28;42451;-84
2023/09/12 00:06:10;;;;;;;3.60;2.67;;;;;;;19.66;57.70;98497.34;4997332;28;41861;-82
2023/09/12 00:08:38;;;;;;;4.33;2.17;;;;;;;19.66;57.83;98501.88;5013352;28;42717;-82
2023/09/12 00:11:10;;;;;;;2.90;2.37;;;;;;;19.65;58.05;98506.41;5013244;28;43093;-83
2023/09/12 00:13:39;;;;;;;3.70;2.40;;;;;;;19.58;58.34;98500.00;5013973;28;40225;-82
2023/09/12 00:16:09;;;;;;;6.10;2.83;;;;;;;19.59;58.78;98496.31;5031229;28;42742;-83
2023/09/12 00:18:37;;;;;;;4.57;2.60;;;;;;;19.57;58.82;98501.00;4997884;28;41335;-84
2023/09/12 00:21:04;;;;;;;5.30;2.70;;;;;;;19.46;58.78;98490.50;4997494;28;41297;-84
2023/09/12 00:23:32;;;;;;;2.33;2.13;;;;;;;19.51;58.77;98509.72;5013294;28;39944;-81
2023/09/12 00:26:00;;;;;;;5.50;2.50;;;;;;;19.48;58.67;98504.63;5014749;28;41706;-82
2023/09/12 00:28:27;;;;;;;2.87;2.53;;;;;;;19.46;58.94;98501.25;5034788;28;42792;-84
2023/09/12 00:30:55;;;;;;;3.27;2.90;;;;;;;19.45;58.85;98496.88;5016959;28;42870;-84
2023/09/12 00:33:24;;;;;;;3.97;2.33;;;;;;;19.43;59.19;98495.34;5000566;28;39564;-82
2023/09/12 00:35:53;;;;;;;2.97;2.30;;;;;;;19.42;59.67;98497.19;5016535;28;42073;-80
2023/09/12 00:38:20;;;;;;;4.83;2.90;;;;;;;19.41;60.41;98487.44;5017814;28;42784;-84
2023/09/12 00:40:47;;;;;;;3.73;2.70;;;;;;;19.40;60.02;98485.78;5001451;28;40872;-80
2023/09/12 00:43:16;;;;;;;4.07;2.73;;;;;;;19.10;60.22;98440.66;5001418;28;39812;-83
2023/09/12 00:45:44;;;;;;;4.17;2.93;;;;;;;19.35;60.31;98483.59;5018131;28;42956;-82
2023/09/12 00:48:14;;;;;;;4.37;2.93;;;;;;;19.23;60.42;98470.59;5018002;28;42803;-85
2023/09/12 00:50:44;;;;;;;3.43;2.87;;;;;;;19.28;60.25;98481.72;5035422;28;43095;-83
2023/09/12 00:53:11;;;;;;;4.07;2.87;;;;;;;19.21;60.33;98483.31;5001619;28;39319;-83
2023/09/12 00:55:46;;;;;;;4.23;2.77;;;;;;;19.19;60.41;98482.63;5017589;28;41919;-83
2023/09/12 00:58:15;;;;;;;4.23;2.87;;;;;;;19.06;60.29;98471.50;5017657;28;42360;-84
2023/09/12 01:00:43;;;;;;;3.27;2.87;;;;;;;19.11;60.66;98479.91;5017387;28;41594;-85
2023/09/12 01:03:11;;;;;;;4.17;2.90;;;;;;;18.97;60.38;98463.41;5017225;28;40755;-83
2023/09/12 01:05:38;;;;;;;4.47;2.77;;;;;;;19.03;60.40;98480.72;5000298;28;41002;-81
2023/09/12 01:08:07;;;;;;;3.67;2.87;;;;;;;18.98;60.39;98488.41;4998939;28;41643;-82
2023/09/12 01:10:37;;;;;;;4.03;2.50;;;;;;;18.94;60.74;98490.53;5031039;28;43238;-82
2023/09/12 01:13:04;;;;;;;3.50;2.97;;;;;;;18.91;60.43;98490.88;5016232;28;40896;-82
2023/09/12 01:15:32;;;;;;;3.20;2.40;;;;;;;18.87;61.08;98485.97;5016257;28;41709;-84
2023/09/12 01:18:00;;;;;;;4.30;2.73;;;;;;;18.82;61.10;98478.38;4999706;28;41387;-83
2023/09/12 01:20:31;;;;;;;3.53;2.67;;;;;;;18.75;60.91;98474.66;5016309;28;43480;-84
2023/09/12 01:23:22;;;;;;;3.93;2.53;;;;;;;18.82;61.10;98481.06;4999457;28;39881;-82
2023/09/12 01:26:06;;;;;;;3.93;2.67;;;;;;;18.82;61.40;98480.22;5012965;28;42711;-83
2023/09/12 01:28:36;;;;;;;3.60;2.50;;;;;;;18.66;61.40;98456.81;5015690;28;41726;-80
2023/09/12 01:31:05;;;;;;;3.93;2.33;;;;;;;18.76;61.40;98473.66;4999403;28;41274;-82
2023/09/12 01:33:32;;;;;;;4.47;2.33;;;;;;;18.75;61.55;98463.94;4999587;28;40030;-83
2023/09/12 01:36:00;;;;;;;2.87;2.20;;;;;;;18.75;62.15;98460.41;4999204;28;41920;-80
2023/09/12 01:38:29;;;;;;;4.20;2.43;;;;;;;18.33;62.40;98398.53;4999575;28;42755;-82
2023/09/12 01:40:57;;;;;;;4.70;2.73;;;;;;;18.74;62.03;98462.25;5000162;28;42377;-81
2023/09/12 01:43:27;;;;;;;2.80;2.30;;;;;;;18.74;61.97;98462.25;5000310;28;39960;-84
2023/09/12 01:45:59;;;;;;;2.83;2.40;;;;;;;18.73;62.01;98465.91;5016773;28;40589;-84
2023/09/12 01:48:34;;;;;;;3.93;2.70;;;;;;;18.71;62.18;98467.91;5000243;28;41628;-81
2023/09/12 01:51:02;;;;;;;3.87;2.60;;;;;;;18.67;62.48;98471.91;5013935;28;42578;-81
2023/09/12 01:53:32;;;;;;;3.83;2.43;;;;;;;18.63;62.39;98473.22;5016624;28;41901;-80
2023/09/12 01:56:00;;;;;;;4.40;2.57;;;;;;;18.60;62.77;98470.84;5000184;28;40741;-82
2023/09/12 01:58:27;;;;;;;4.03;2.80;;;;;;;18.56;62.86;98478.31;5000276;28;41617;-83
2023/09/12 02:00:57;;;;;;;4.60;2.83;;;;;;;18.49;62.87;98473.75;5000335;28;40894;-84
2023/09/12 02:03:24;;;;;;;3.17;2.37;;;;;;;18.47;62.98;98478.41;5000245;28;39789;-83
2023/09/12 02:05:52;;;;;;;2.53;2.33;;;;;;;18.44;62.90;98481.41;5015551;28;40858;-84
2023/09/12 02:08:19;;;;;;;2.63;2.40;;;;;;;18.42;63.07;98475.38;4998488;28;44205;-80
2023/09/12 02:10:48;;;;;;;4.03;2.73;;;;;;;18.40;63.11;98477.38;5015448;28;42301;-83
2023/09/12 02:13:16;;;;;;;4.13;3.17;;;;;;;18.18;63.27;98444.66;5015496;28;40741;-85
2023/09/12 02:15:44;;;;;;;5.00;2.63;;;;;;;18.36;63.50;98479.50;4999456;28;42227;-79
2023/09/12 02:18:12;;;;;;;3.40;2.93;;;;;;;18.35;63.31;98482.34;5014993;28;43069;-81
2023/09/12 02:20:45;;;;;;;2.67;2.47;;;;;;;18.26;63.67;98479.59;5015128;28;43093;-81
2023/09/12 02:23:13;;;;;;;2.83;2.50;;;;;;;18.30;63.61;98486.31;5015151;28;40918;-81
2023/09/12 02:25:40;;;;;;;4.63;2.70;;;;;;;18.27;63.59;98486.63;4998660;28;41108;-81
2023/09/12 02:28:08;;;;;;;3.23;2.60;;;;;;;18.14;63.77;98461.22;5015329;28;42674;-83
2023/09/12 02:30:38;;;;;;;4.07;2.73;;;;;;;18.25;63.71;98487.78;5015233;28;43336;-84
2023/09/12 02:33:06;;;;;;;3.50;2.23;;;;;;;18.23;64.03;98485.25;4998563;28;39926;-83
2023/09/12 02:35:35;;;;;;;3.50;2.70;;;;;;;18.21;63.74;98492.59;4998431;28;40647;-84
2023/09/12 02:38:03;;;;;;;3.27;2.50;;;;;;;18.18;64.29;98492.88;5033175;28;43559;-84
2023/09/12 02:40:30;;;;;;;3.43;2.37;;;;;;;18.17;63.82;98495.75;5016042;28;43487;-84
2023/09/12 02:42:57;;;;;;;4.40;3.20;;;;;;;18.14;63.96;98496.88;5016057;28;41682;-81
2023/09/12 02:45:25;;;;;;;4.80;2.97;;;;;;;18.08;63.94;98489.44;5016169;28;41559;-82
2023/09/12 02:47:53;;;;;;;4.43;3.10;;;;;;;18.09;64.34;98504.53;4999361;28;41667;-83
2023/09/12 02:50:20;;;;;;;3.37;2.97;;;;;;;18.07;64.22;98495.78;4999415;28;41198;-81
2023/09/12 02:52:49;;;;;;;3.17;2.53;;;;;;;18.05;64.07;98497.78;4999524;28;39880;-84
2023/09/12 02:55:17;;;;;;;3.27;2.97;;;;;;;18.04;64.33;98501.47;4999246;28;41793;-83
2023/09/12 02:57:44;;;;;;;2.67;2.30;;;;;;;18.02;64.37;98494.59;4999159;28;41728;-81
2023/09/12 03:00:13;;;;;;;3.20;2.90;;;;;;;18.01;64.52;98496.41;5015767;28;42470;-84
2023/09/12 03:02:41;;;;;;;5.07;2.40;;;;;;;17.90;64.82;98477.88;5015689;28;40845;-82
2023/09/12 03:05:09;;;;;;;3.80;2.40;;;;;;;17.99;64.92;98493.03;5015792;28;41965;-84
2023/09/12 03:07:37;;;;;;;2.80;2.33;;;;;;;17.96;64.60;98487.97;5013903;28;43729;-82
2023/09/12 03:10:06;;;;;;;3.60;2.40;;;;;;;17.85;64.83;98469.44;5014653;28;41896;-83
2023/09/12 03:12:36;;;;;;;3.40;2.77;;;;;;;17.84;64.90;98468.59;5014251;28;41086;-83
2023/09/12 03:15:05;;;;;;;5.00;2.87;;;;;;;17.82;64.91;98473.25;5014841;28;41385;-82
2023/09/12 03:17:33;;;;;;;3.63;2.60;;;;;;;17.92;65.05;98491.97;5026277;28;42668;-79
2023/09/12 03:20:01;;;;;;;3.87;2.80;;;;;;;17.90;64.90;98488.59;5012074;28;42602;-81
2023/09/12 03:22:28;;;;;;;3.30;3.00;;;;;;;17.88;64.89;98474.50;5015144;28;41800;-84
2023/09/12 03:24:56;;;;;;;3.73;2.70;;;;;;;17.86;65.15;98477.34;4998365;28;40728;-83
2023/09/12 03:27:25;;;;;;;4.30;3.20;;;;;;;17.84;65.06;98470.44;4990127;28;42759;-83
2023/09/12 03:29:52;;;;;;;3.13;2.57;;;;;;;17.83;65.33;98471.44;4997811;28;41430;-80
2023/09/12 03:32:19;;;;;;;2.83;2.50;;;;;;;17.80;65.41;98461.03;5013958;28;40894;-82
2023/09/12 03:34:47;;;;;;;4.27;2.77;;;;;;;17.77;65.42;98462.16;5014272;28;42811;-81
2023/09/12 03:37:15;;;;;;;3.47;2.67;;;;;;;17.75;65.29;98466.00;4997332;28;41701;-81
2023/09/12 03:39:42;;;;;;;3.30;2.40;;;;;;;17.72;65.54;98463.59;4998719;28;41633;-83
2023/09/12 03:42:10;;;;;;;3.33;2.80;;;;;;;17.68;65.59;98462.25;4998793;28;40240;-83
2023/09/12 03:44:39;;;;;;;3.53;2.43;;;;;;;17.64;65.29;98459.00;5015177;28;41597;-81
2023/09/12 03:47:06;;;;;;;3.47;2.47;;;;;;;17.60;65.26;98454.91;4998475;28;42929;-82
2023/09/12 03:49:34;;;;;;;4.60;3.10;;;;;;;17.56;65.35;98459.72;5015235;28;43340;-85
2023/09/12 03:52:02;;;;;;;2.93;2.40;;;;;;;17.52;65.22;98457.50;4998665;28;40969;-83
2023/09/12 03:54:29;;;;;;;3.07;2.67;;;;;;;17.50;65.34;98454.97;5015267;28;41699;-81
2023/09/12 03:56:57;;;;;;;4.07;2.53;;;;;;;17.46;65.32;98453.56;5014889;28;41500;-82
2023/09/12 03:59:24;;;;;;;3.30;2.53;;;;;;;17.42;65.42;98452.19;5014799;28;43264;-81
2023/09/12 04:01:53;;;;;;;3.20;2.60;;;;;;;17.41;65.93;98455.03;4997718;28;39978;-82
2023/09/12 04:04:21;;;;;;;3.23;2.67;;;;;;;17.38;65.96;98464.19;5014899;28;41914;-80
2023/09/12 04:06:48;;;;;;;3.60;2.57;;;;;;;17.38;65.97;98466.88;4996457;28;42547;-83
2023/09/12 04:09:16;;;;;;;3.00;2.60;;;;;;;17.38;65.83;98471.38;4997303;28;42364;-83
2023/09/12 04:11:44;;;;;;;3.90;3.07;;;;;;;17.37;66.14;98469.69;4996892;28;39765;-82
2023/09/12 04:14:12;;;;;;;4.60;3.00;;;;;;;17.34;66.56;98464.63;4997142;28;40717;-80
2023/09/12 04:16:40;;;;;;;5.63;3.10;;;;;;;17.36;66.89;98460.81;4997097;28;42500;-82
2023/09/12 04:19:08;;;;;;;4.23;2.73;;;;;;;17.37;66.97;98465.16;4996953;28;42115;-82
2023/09/12 04:21:36;;;;;;;3.47;3.10;;;;;;;17.35;68.03;98459.13;4996873;28;40099;-82
2023/09/12 04:24:04;;;;;;;5.27;3.40;;;;;;;17.41;68.41;98465.72;4997030;28;41956;-82
2023/09/12 04:26:31;;;;;;;3.37;3.07;;;;;;;17.42;68.26;98472.78;5013433;28;42673;-85
2023/09/12 04:28:59;;;;;;;4.13;3.03;;;;;;;17.44;68.02;98470.75;5013511;28;42403;-83
2023/09/12 04:31:27;;;;;;;4.83;2.93;;;;;;;17.40;67.73;98470.25;4996855;28;39700;-82
2023/09/12 04:33:54;;;;;;;4.50;3.30;;;;;;;17.43;67.66;98464.56;5013550;28;41933;-84
2023/09/12 04:36:23;;;;;;;4.13;3.00;;;;;;;17.43;67.71;98461.06;4996616;28;42323;-80
2023/09/12 04:38:51;;;;;;;4.53;3.53;;;;;;;17.39;67.81;98452.50;5014497;28;43345;-75
2023/09/12 04:41:18;;;;;;;3.17;2.87;;;;;;;17.41;67.82;98461.22;4996457;28;39887;-74
2023/09/12 04:43:46;;;;;;;4.90;2.90;;;;;;;17.23;67.80;98428.19;4996501;28;42215;-74
2023/09/12 04:46:14;;;;;;;3.27;2.80;;;;;;;17.37;68.05;98453.63;4996489;28;42798;-73
2023/09/12 04:48:43;;;;;;;4.33;2.80;;;;;;;17.35;67.79;98459.13;4995349;28;41197;-74
2023/09/12 04:51:10;;;;;;;3.93;2.90;;;;;;;17.32;67.63;98461.25;4994804;28;41266;-74
2023/09/12 04:53:40;;;;;;;3.80;3.30;;;;;;;17.29;67.91;98462.41;5029441;28;41977;-75
2023/09/12 04:56:09;;;;;;;4.90;3.17;;;;;;;17.21;67.39;98460.44;4995066;28;42677;-74
2023/09/12 04:58:37;;;;;;;2.60;2.37;;;;;;;17.23;67.61;98465.66;4994996;28;42335;-75
2023/09/12 05:01:04;;;;;;;4.30;2.73;;;;;;;17.24;67.71;98467.34;5011518;28;40919;-74
2023/09/12 05:03:33;;;;;;;3.97;2.87;;;;;;;17.22;67.56;98461.28;4995323;28;40516;-75
2023/09/12 05:06:00;;;;;;;3.67;2.93;;;;;;;17.21;67.76;98463.13;4994998;28;41840;-74
2023/09/12 05:08:28;;;;;;;4.33;3.20;;;;;;;17.15;67.44;98446.81;5011515;28;42519;-75
2023/09/12 05:10:57;;;;;;;3.83;2.93;;;;;;;17.21;67.50;98465.78;5011539;28;41078;-74
2023/09/12 05:13:25;;;;;;;4.47;2.90;;;;;;;17.23;67.78;98463.81;4998568;28;40680;-75
2023/09/12 05:15:52;;;;;;;4.27;2.60;;;;;;;17.25;67.92;98458.31;5032672;28;43715;-76
2023/09/12 05:18:20;;;;;;;3.50;2.73;;;;;;;17.17;67.83;98444.84;5014789;28;43135;-75
2023/09/12 05:20:47;;;;;;;4.03;2.77;;;;;;;16.94;67.81;98398.06;5014822;28;41848;-75
2023/09/12 05:23:15;;;;;;;3.27;2.70;;;;;;;17.35;68.08;98460.94;5014453;28;41055;-75
2023/09/12 05:25:42;;;;;;;3.50;3.13;;;;;;;17.38;68.50;98466.88;4997822;28;43286;-76
2023/09/12 05:28:15;;;;;;;4.97;3.17;;;;;;;17.42;68.31;98473.63;4997931;28;41343;-75
2023/09/12 05:30:43;;;;;;;6.10;3.27;;;;;;;17.46;68.47;98485.69;4998261;28;39921;-75
2023/09/12 05:33:11;;;;;;;3.33;2.97;;;;;;;17.49;68.10;98495.28;5014482;28;41993;-75
2023/09/12 05:35:38;;;;;;;7.10;3.80;;;;;;;17.52;68.09;98500.34;5014382;28;42572;-75
2023/09/12 05:38:06;;;;;;;5.40;3.53;;;;;;;17.53;68.06;98499.34;5015253;28;41570;-74
2023/09/12 05:40:34;;;;;;;3.93;3.37;;;;;;;17.59;68.51;98498.72;4998886;28;39887;-75
2023/09/12 05:43:01;;;;;;;4.23;3.50;;;;;;;17.64;68.33;98499.19;5032914;28;41840;-75
2023/09/12 05:45:32;;;;;;;4.97;3.20;;;;;;;17.69;68.09;98493.34;5033172;28;43842;-75
2023/09/12 05:48:00;;;;;;;4.93;3.13;;;;;;;17.76;67.86;98494.47;5014956;28;42305;-75
2023/09/12 05:50:28;;;;;;;5.23;3.30;;;;;;;17.83;67.85;98487.50;5015544;28;41155;-75
2023/09/12 05:52:56;;;;;;;3.60;3.30;;;;;;;17.90;67.81;98488.59;5014683;28;41460;-75
2023/09/12 05:55:24;;;;;;;4.67;3.37;;;;;;;17.98;67.80;98495.88;4998444;28;42739;-74
2023/09/12 05:57:52;;;;;;;4.00;3.10;;;;;;;18.01;67.83;98496.41;4998705;28;42547;-74
2023/09/12 06:00:21;;;;;;;5.90;3.33;;;;;;;18.11;67.22;98501.69;4998633;28;42675;-75
2023/09/12 06:02:50;;;;;;;5.33;3.47;;;;;;;18.18;67.86;98495.56;5014952;28;41924;-76
2023/09/12 06:05:17;;;;;;;7.13;4.03;;;;;;;18.25;68.85;98491.31;5014168;28;41969;-76
2023/09/12 06:07:46;;;;;;;5.83;3.40;;;;;;;18.26;68.20;98482.25;4996619;28;42384;-75
2023/09/12 06:10:14;;;;;;;6.40;3.47;;;;;;;18.40;68.13;98501.50;4997394;28;40979;-76
2023/09/12 06:12:41;;;;;;;3.67;3.17;;;;;;;18.49;68.79;98500.56;5031729;28;42904;-75
2023/09/12 06:15:09;;;;;;;6.00;4.10;;;;;;;18.63;68.46;98513.47;5032139;28;43655;-75
2023/09/12 06:17:37;;;;;;;4.67;3.70;;;;;;;18.75;68.29;98519.41;5031432;28;42488;-75
2023/09/12 06:20:07;;;;;;;5.87;4.00;;;;;;;18.89;68.10;98508.97;4997538;28;40388;-75
2023/09/12 06:22:35;;;;;;;4.97;3.60;;;;;;;19.05;68.56;98510.06;5013404;28;41635;-74
2023/09/12 06:25:03;;;;;;;6.20;3.97;;;;;;;18.97;68.32;98478.66;4995817;28;41611;-79
2023/09/12 06:27:31;;;;;;;6.50;4.20;;;;;;;19.29;68.70;98510.22;4987277;28;41264;-78
2023/09/12 06:29:59;;;;;;;3.90;3.60;;;;;;;19.35;68.11;98493.47;5014469;28;40932;-78
2023/09/12 06:32:27;;;;;;;5.27;3.97;;;;;;;19.58;68.15;98500.00;4997469;28;41707;-78
2023/09/12 06:34:54;;;;;;;6.87;4.83;;;;;;;19.86;69.16;98507.84;5013790;28;42716;-81
2023/09/12 06:37:23;;;;;;;13.17;4.80;;;;;;;20.04;68.23;98509.38;5012645;28;43008;-78
2023/09/12 06:39:51;;;;;;;6.17;4.83;;;;;;;20.24;69.16;98493.81;4996346;28;40961;-76
2023/09/12 06:42:19;;;;;;;5.03;4.30;;;;;;;20.35;68.20;98482.78;5029615;28;41660;-77
2023/09/12 06:44:47;;;;;;;6.40;4.03;;;;;;;20.55;68.67;98477.88;4996071;28;43293;-77
2023/09/12 06:47:14;;;;;;;6.37;4.40;;;;;;;20.97;68.37;98504.63;5013758;28;42383;-78
2023/09/12 06:49:42;;;;;;;6.47;4.80;;;;;;;21.27;67.72;98510.31;4982126;28;40343;-81
2023/09/12 06:52:10;;;;;;;5.37;3.83;;;;;;;21.46;66.88;98499.16;4997329;28;42598;-86
2023/09/12 06:54:39;;;;;;;6.60;4.60;;;;;;;21.83;66.02;98517.38;5031706;28;42640;-81
2023/09/12 06:57:07;;;;;;;5.13;4.40;;;;;;;22.03;65.32;98507.84;5014003;28;42869;-82
2023/09/12 06:59:35;;;;;;;4.77;4.20;;;;;;;22.49;64.64;98532.22;5013869;28;41204;-83
2023/09/12 07:02:02;;;;;;;7.20;4.63;;;;;;;22.85;63.87;98530.63;4981077;28;40916;-79
2023/09/12 07:04:30;;;;;;;4.77;3.87;;;;;;;23.12;62.48;98507.56;5014165;28;42714;-86
2023/09/12 07:06:58;;;;;;;9.67;4.37;;;;;;;23.49;61.87;98522.06;4995366;28;42595;-83
2023/09/12 07:09:25;;;;;;;8.00;4.40;;;;;;;23.54;61.16;98503.44;4996201;28;40286;-79
2023/09/12 07:11:54;;;;;;;6.67;4.47;;;;;;;23.90;60.81;98523.25;5012169;28;42089;-77
2023/09/12 07:14:23;;;;;;;6.77;4.47;;;;;;;24.06;60.21;98529.50;5012050;28;41820;-78
2023/09/12 07:16:51;;;;;;;7.27;4.30;;;;;;;24.14;60.10;98523.97;4995837;28;41284;-81
2023/09/12 07:19:18;;;;;;;6.23;4.57;;;;;;;24.22;58.88;98532.88;5012428;28;39820;-82
2023/09/12 07:21:46;;;;;;;5.63;4.50;;;;;;;24.47;59.13;98522.53;5030251;28;41955;-79
2023/09/12 07:24:13;;;;;;;6.23;4.50;;;;;;;24.83;58.00;98518.91;5011734;28;41824;-85
2023/09/12 07:26:41;;;;;;;7.63;4.97;;;;;;;24.99;56.41;98516.78;5011626;28;43050;-82
2023/09/12 07:29:10;;;;;;;8.60;5.37;;;;;;;25.17;57.77;98478.34;5029615;28;40905;-80
2023/09/12 07:31:37;;;;;;;6.50;5.13;;;;;;;25.64;57.25;98466.78;5011930;28;40991;-80
2023/09/12 07:34:05;;;;;;;8.57;5.43;;;;;;;26.64;55.71;98517.66;5012138;28;41716;-81
2023/09/12 07:36:32;;;;;;;8.37;5.47;;;;;;;27.10;53.59;98519.59;4959765;28;1509894;-82
2023/09/12 07:39:03;;;;;;;5.20;4.40;;;;;;;27.09;52.56;98520.63;5014696;28;41721;-88
2023/09/12 07:41:53;;;;;;;8.90;5.43;;;;;;;27.17;51.80;98550.34;4998030;28;41368;-78
2023/09/12 07:44:55;;;;;;;5.90;4.83;;;;;;;27.64;51.99;98529.41;4999702;28;43932;-82
2023/09/12 07:47:22;;;;;;;6.43;4.73;;;;;;;28.21;49.71;98551.22;4998065;28;41823;-83
2023/09/12 07:50:04;;;;;;;;;;;;;;;;;;;;;
2023/09/12 07:53:07;;;;;;;5.57;4.90;;;;;;;28.71;47.59;98575.06;5013613;28;40934;-78
2023/09/12 07:55:45;;;;;;;8.63;5.30;;;;;;;29.64;46.66;98537.88;5031328;28;43538;-80
2023/09/12 07:58:13;;;;;;;5.83;4.53;;;;;;;30.97;43.91;98598.03;4997519;28;42374;-77
2023/09/12 08:00:46;;;;;;;7.17;4.67;;;;;;;32.09;40.09;98612.63;4997209;28;39907;-85
2023/09/12 08:03:14;;;;;;;8.70;4.70;;;;;;;31.89;41.47;98598.47;5014564;28;40972;-79
2023/09/12 08:05:42;;;;;;;5.97;4.77;;;;;;;31.55;41.64;98608.31;5012442;28;43039;-79
2023/09/12 08:08:10;;;;;;;8.50;5.13;;;;;;;31.50;41.72;98587.13;4995357;28;41617;-79
2023/09/12 08:10:37;;;;;;;6.80;4.33;;;;;;;31.34;41.54;98560.44;5012546;28;41942;-81
2023/09/12 08:13:05;;;;;;;6.50;4.87;;;;;;;31.61;41.86;98591.78;4996078;28;42037;-78
2023/09/12 08:15:32;;;;;;;5.93;4.90;;;;;;;31.70;41.15;98593.09;5030081;28;43482;-80
2023/09/12 08:18:01;;;;;;;7.77;5.00;;;;;;;31.81;40.94;98596.91;5030162;28;43215;-79
2023/09/12 08:20:29;;;;;;;7.10;4.97;;;;;;;32.02;41.24;98604.50;4995682;28;39788;-80
2023/09/12 08:22:56;;;;;;;8.53;5.33;;;;;;;32.42;40.50;98601.00;4996009;28;41106;-80
2023/09/12 08:25:24;;;;;;;5.23;4.73;;;;;;;32.95;39.90;98589.75;4987486;28;43066;-83
2023/09/12 08:27:52;;;;;;;8.83;5.33;;;;;;;33.96;38.23;98617.28;4995780;28;41072;-78
2023/09/12 08:30:19;;;;;;;7.07;4.95;;;;;;;34.15;37.71;98615.91;5029978;28;41071;-77
2023/09/12 08:32:47;;;;;;;6.63;4.88;;;;;;;34.50;36.84;98621.91;5011963;28;41716;-77
2023/09/12 08:35:16;;;;;;;8.15;4.90;;;;;;;34.80;36.56;98623.38;5011943;28;42910;-77
2023/09/12 08:37:43;;;;;;;5.65;5.05;;;;;;;35.05;35.94;98622.81;5012201;28;41430;-79
2023/09/12 08:40:12;;;;;;;7.88;4.93;;;;;;;35.88;35.09;98629.66;5030652;28;41348;-79
2023/09/12 08:42:41;;;;;;;7.40;5.13;;;;;;;36.00;34.44;98638.56;4996343;28;40859;-77
2023/09/12 08:45:13;;;;;;;6.90;4.68;;;;;;;36.88;33.42;98634.06;5012817;28;42919;-78
2023/09/12 08:47:42;;;;;;;6.32;4.72;;;;;;;38.28;31.50;98657.69;5014876;28;42336;-77
2023/09/12 08:50:13;;;;;;;5.13;4.47;;;;;;;39.11;30.73;98647.69;5016317;28;40992;-77
2023/09/12 08:52:44;;;;;;;7.07;5.30;;;;;;;38.42;30.18;98633.84;4995891;28;42693;-78
2023/09/12 08:55:12;;;;;;;4.68;4.28;;;;;;;39.00;29.51;98642.47;4996322;28;43265;-81
2023/09/12 08:57:42;;;;;;;6.05;4.53;;;;;;;40.88;28.20;98656.31;4996706;28;41526;-83
2023/09/12 09:00:12;;;;;;;5.07;4.57;;;;;;;42.60;25.65;98654.59;4999805;28;40982;-83
2023/09/12 09:02:40;;;;;;;5.00;4.25;;;;;;;43.23;24.21;98654.66;4999351;28;40850;-82
2023/09/12 09:05:10;;;;;;;5.40;4.80;;;;;;;42.63;24.00;98628.94;5016046;28;43057;-85
2023/09/12 09:07:38;;;;;;;6.43;5.07;;;;;;;42.31;24.67;98644.56;4998802;28;41684;-82
2023/09/12 09:10:11;;;;;;;5.20;4.38;;;;;;;42.61;24.75;98645.94;4999496;28;41285;-82
2023/09/12 09:12:41;;;;;;;4.95;4.45;;;;;;;43.51;23.64;98649.81;5014871;28;42412;-82
2023/09/12 09:15:22;;;;;;;5.50;4.40;;;;;;;44.28;23.02;98629.94;5015529;28;42737;-87
2023/09/12 09:17:51;;;;;;;5.78;4.40;;;;;;;45.31;21.97;98629.44;4998846;28;41632;-84
2023/09/12 09:20:27;;;;;;;5.45;4.20;;;;;;;45.92;22.12;98641.41;4998676;28;41409;-78
2023/09/12 09:23:00;;;;;;;4.70;4.25;;;;;;;45.08;22.27;98636.31;5032341;28;42692;-86
2023/09/12 09:25:31;;;;;;;4.22;3.65;;;;;;;44.76;22.88;98636.75;4998682;28;41600;-83
2023/09/12 09:27:58;;;;;;;4.95;4.45;;;;;;;44.26;22.40;98637.84;5014688;28;41580;-81
2023/09/12 09:30:43;;;;;;;6.35;4.57;;;;;;;43.20;23.48;98618.22;4998611;28;39877;-80
2023/09/12 09:33:11;;;;;;;6.70;4.40;;;;;;;42.36;24.48;98626.13;5032161;28;42497;-79
2023/09/12 09:35:42;;;;;;;10.10;4.63;;;;;;;41.99;24.32;98597.34;5014776;28;43080;-86
2023/09/12 09:38:10;;;;;;;5.25;4.75;;;;;;;41.71;25.15;98609.50;4999995;28;41860;-84
2023/09/12 09:40:39;;;;;;;6.60;4.70;;;;;;;41.00;25.51;98608.66;4999976;28;41568;-83
2023/09/12 09:43:07;;;;;;;5.57;4.90;;;;;;;40.31;26.48;98589.84;5015574;28;42898;-85
2023/09/12 09:45:44;;;;;;;5.20;4.70;;;;;;;39.59;27.28;98594.41;4999578;28;41902;-82
2023/09/12 09:48:32;;;;;;;6.53;4.85;;;;;;;38.89;27.34;98591.00;4999370;28;41229;-87
2023/09/12 09:51:22;;;;;;;5.05;4.65;;;;;;;38.45;27.85;98580.72;5001004;28;39793;-80
2023/09/12 09:53:52;;;;;;;5.68;5.07;;;;;;;38.42;28.16;98578.50;4999753;28;40643;-85
2023/09/12 09:56:21;;;;;;;5.32;4.80;;;;;;;38.63;28.64;98577.31;5016544;28;43465;-82
2023/09/12 09:58:49;;;;;;;6.22;4.65;;;;;;;38.56;28.08;98593.41;5001344;28;41601;-81
2023/09/12 10:01:24;;;;;;;8.43;5.30;;;;;;;38.30;28.83;98583.53;5011901;28;39882;-89
2023/09/12 10:03:53;;;;;;;4.75;4.32;;;;;;;38.19;29.26;98576.38;4984461;28;41649;-86
2023/09/12 10:06:21;;;;;;;6.95;4.80;;;;;;;37.99;29.11;98567.00;4999877;28;42938;-85
2023/09/12 10:08:53;;;;;;;5.68;5.07;;;;;;;38.08;29.21;98576.41;4999111;28;41216;-87
2023/09/12 10:11:25;;;;;;;6.35;5.00;;;;;;;38.19;29.69;98565.31;4998527;28;39876;-89
2023/09/12 10:13:55;;;;;;;6.80;5.07;;;;;;;38.06;29.09;98559.25;4998405;28;42465;-86
2023/09/12 10:16:25;;;;;;;5.80;5.00;;;;;;;38.13;30.18;98563.66;4998559;28;42504;-86
2023/09/12 10:18:59;;;;;;;5.72;4.80;;;;;;;38.06;29.52;98558.41;5014621;28;41276;-89
2023/09/12 10:21:32;;;;;;;6.55;5.35;;;;;;;37.94;29.68;98546.84;4998637;28;39944;-85
2023/09/12 10:24:00;;;;;;;6.57;5.45;;;;;;;37.97;30.68;98552.63;4998007;28;41149;-87
2023/09/12 10:26:31;;;;;;;7.32;4.65;;;;;;;38.08;30.83;98515.53;4998339;28;43485;-87
2023/09/12 10:29:02;;;;;;;5.35;4.85;;;;;;;38.74;28.96;98556.75;4997957;28;41747;-87
2023/09/12 10:31:30;;;;;;;7.07;4.38;;;;;;;39.72;28.33;98560.47;4998455;28;40963;-87
2023/09/12 10:33:59;;;;;;;5.85;4.70;;;;;;;40.90;26.89;98554.06;5014548;28;40660;-88
2023/09/12 10:36:28;;;;;;;6.38;4.43;;;;;;;42.06;25.49;98569.09;4998118;28;42634;-86
2023/09/12 10:38:56;;;;;;;6.82;4.80;;;;;;;43.27;24.30;98562.88;4999436;28;41184;-89
2023/09/12 10:41:25;;;;;;;7.10;4.40;;;;;;;44.93;23.10;98583.66;4999797;28;39763;-86
2023/09/12 10:44:17;;;;;;;4.85;4.32;;;;;;;45.30;21.80;98583.03;4999260;28;42098;-87
2023/09/12 10:46:48;;;;;;;7.97;4.85;;;;;;;44.38;22.10;98573.88;4999284;28;42150;-87
2023/09/12 10:49:17;;;;;;;5.78;5.28;;;;;;;43.73;22.63;98567.28;4998922;28;41978;-88
2023/09/12 10:51:46;;;;;;;8.57;5.00;;;;;;;42.93;23.67;98553.03;4999472;28;40256;-87
2023/09/12 10:54:16;;;;;;;5.50;4.30;;;;;;;42.63;24.66;98548.16;4998897;28;41289;-87
2023/09/12 10:56:50;;;;;;;7.75;4.60;;;;;;;42.62;24.97;98540.94;4996692;28;42930;-87
2023/09/12 10:59:25;;;;;;;4.85;3.85;;;;;;;43.06;24.04;98558.88;4999117;28;41159;-88
2023/09/12 11:01:52;;;;;;;9.10;4.80;;;;;;;43.24;22.54;98558.75;4998810;28;41609;-89
2023/09/12 11:04:33;;;;;;;5.40;4.03;;;;;;;43.13;23.04;98562.06;4999100;28;41463;-87
2023/09/12 11:07:01;;;;;;;4.95;4.13;;;;;;;43.21;23.64;98564.13;4996592;28;42979;-87
2023/09/12 11:09:29;;;;;;;6.90;4.25;;;;;;;43.48;23.82;98557.59;4998154;28;41620;-86
2023/09/12 11:11:59;;;;;;;4.85;3.90;;;;;;;43.52;23.66;98539.06;5012511;28;41998;-87
2023/09/12 11:14:48;;;;;;;6.20;4.53;;;;;;;43.63;23.17;98541.31;4978231;28;41398;-84
2023/09/12 11:17:24;;;;;;;6.70;4.57;;;;;;;43.84;22.38;98560.28;5007372;28;42693;-84
2023/09/12 11:19:53;;;;;;;4.95;4.13;;;;;;;43.80;22.64;98557.28;4994987;28;41947;-81
2023/09/12 11:22:26;;;;;;;5.35;4.20;;;;;;;43.79;22.49;98535.28;4996838;28;40988;-88
2023/09/12 11:24:55;;;;;;;7.07;4.28;;;;;;;44.01;22.40;98535.28;4995877;28;41304;-85
2023/09/12 11:27:24;;;;;;;5.32;4.20;;;;;;;44.27;22.20;98554.88;4996659;28;41927;-82
2023/09/12 11:29:54;;;;;;;5.97;4.55;;;;;;;43.97;22.21;98542.63;5013396;28;42401;-83
2023/09/12 11:32:32;;;;;;;5.82;4.47;;;;;;;43.80;23.57;98509.03;5013365;28;41614;-85
2023/09/12 11:35:00;;;;;;;6.93;4.45;;;;;;;44.52;23.18;98539.34;5010427;28;42816;-84
2023/09/12 11:37:29;;;;;;;6.55;4.43;;;;;;;45.93;20.85;98513.47;4996672;28;41986;-86
2023/09/12 11:39:58;;;;;;;4.43;3.92;;;;;;;47.56;19.75;98556.34;4998145;28;41488;-86
2023/09/12 11:42:27;;;;;;;6.88;4.25;;;;;;;48.88;18.89;98558.78;5031150;28;40832;-82
2023/09/12 11:44:57;;;;;;;7.50;3.92;;;;;;;50.04;17.41;98563.34;5014021;28;43013;-79